createdAt,value
2018-10-01T00:00:13.980Z,6.4
2018-10-01T00:10:21.857Z,6.4
2018-10-01T00:20:22.620Z,6.6
2018-10-01T00:30:22.841Z,6.7
2018-10-01T00:40:22.669Z,6.9
2018-10-01T02:11:42.871Z,7.5
2018-10-01T02:22:07.394Z,7.5
2018-10-01T02:42:49.750Z,7.5
2018-10-01T06:05:22.386Z,7.1
2018-10-01T06:35:33.721Z,6.9
2018-10-01T06:45:36.838Z,6.9
2018-10-01T06:55:36.726Z,6.9
2018-10-01T07:05:36.411Z,7
2018-10-01T07:25:53.683Z,7.2
2018-10-01T07:35:56.885Z,7.1
2018-10-01T08:16:21.678Z,7.5
2018-10-01T08:26:21.567Z,7.5
2018-10-01T08:36:21.071Z,7.6
2018-10-01T08:56:23.672Z,7.4
2018-10-01T09:16:32.722Z,6.8
2018-10-01T09:56:31.483Z,7.1
2018-10-01T10:06:31.502Z,6.8
2018-10-01T10:16:31.319Z,7.2
2018-10-01T10:36:30.787Z,7.2
2018-10-01T10:46:32.835Z,7.1
2018-10-01T10:56:33.132Z,7.2
2018-10-01T11:06:32.715Z,7.1
2018-10-01T11:16:31.598Z,7.2
2018-10-01T11:26:31.242Z,7.1
2018-10-01T11:36:30.534Z,6.5
2018-10-01T11:46:30.237Z,6.8
2018-10-01T11:56:29.873Z,7.2
2018-10-01T12:06:28.365Z,7
2018-10-01T12:16:27.088Z,7
2018-10-01T12:26:26.436Z,7.2
2018-10-01T12:36:28.413Z,7.1
2018-10-01T12:46:28.021Z,7.8
2018-10-01T12:56:27.801Z,7.8
2018-10-01T13:06:27.253Z,7.5
2018-10-01T13:26:26.716Z,7.2
2018-10-01T13:36:25.914Z,6.5
2018-10-01T13:46:24.536Z,5.8
2018-10-01T13:56:23.471Z,6.2
2018-10-01T14:06:23.115Z,6.8
2018-10-01T14:26:24.929Z,7.5
2018-10-01T14:36:25.009Z,7.4
2018-10-01T14:46:24.643Z,7.2
2018-10-01T14:56:24.034Z,7
2018-10-01T15:16:23.284Z,6.9
2018-10-01T15:26:22.650Z,7
2018-10-01T15:36:21.961Z,6.9
2018-10-01T15:56:21.287Z,6.4
2018-10-01T16:06:21.214Z,6
2018-10-01T16:16:20.342Z,6.1
2018-10-01T16:26:19.856Z,6.3
2018-10-01T16:36:19.080Z,6.2
2018-10-01T16:46:18.379Z,6.3
2018-10-01T16:56:18.045Z,6.3
2018-10-01T17:06:17.594Z,6.3
2018-10-01T17:16:16.920Z,6.1
2018-10-01T17:26:16.299Z,5.8
2018-10-01T17:36:15.682Z,5.6
2018-10-01T17:46:15.154Z,5.5
2018-10-01T18:06:14.180Z,5.5
2018-10-01T18:16:13.297Z,5.7
2018-10-01T18:26:12.733Z,5.7
2018-10-01T18:36:12.645Z,5.8
2018-10-01T18:46:12.078Z,5.9
2018-10-01T18:56:11.436Z,5.8
2018-10-01T19:06:11.268Z,5.7
2018-10-01T19:16:10.731Z,5.4
2018-10-01T19:26:10.067Z,5.3
2018-10-01T19:36:09.456Z,5.2
2018-10-01T19:46:08.996Z,5.2
2018-10-01T20:16:16.505Z,4.7
2018-10-01T20:26:16.184Z,4.7
2018-10-01T20:46:23.930Z,4.6
2018-10-01T20:56:28.827Z,4.6
2018-10-01T21:06:28.693Z,4.5
2018-10-01T21:16:28.184Z,4.4
2018-10-01T21:26:27.926Z,4.5
2018-10-01T21:36:27.220Z,4.5
2018-10-01T21:46:26.893Z,4.5
2018-10-01T22:06:34.327Z,4.4
2018-10-01T22:16:33.597Z,4.4
2018-10-01T22:26:33.098Z,4.3
2018-10-01T22:36:32.874Z,4.3
2018-10-01T22:56:40.148Z,4.2
2018-10-01T23:06:39.606Z,4.2
2018-10-01T23:16:39.283Z,4.2
2018-10-01T23:26:38.517Z,4.2
2018-10-01T23:36:38.796Z,4.2
2018-10-01T23:46:39.588Z,4.1
2018-10-01T23:56:39.197Z,4.1
